Time;durP1;ratioP1;P1;durP2;ratioP2;P2;SDS_P1;SDS_P2;PMS_P1;PMS_P2;Temp;Humidity;BMP_temperature;BMP_pressure;BME280_temperature;BME280_humidity;BME280_pressure;Samples;Min_cycle;Max_cycle;Signal;HPM_P1;HPM_P2
2023/06/19 00:00:44;;;;;;;9.70;6.55;;;;;;;;;;5052048;28;20652;-78
2023/06/19 00:03:10;;;;;;;10.63;5.95;;;;;;;;;;5068897;28;20102;-78
2023/06/19 00:05:35;;;;;;;8.07;6.10;;;;;;;;;;5068334;28;20033;-79
2023/06/19 00:08:03;;;;;;;8.23;5.72;;;;;;;;;;5069724;28;20032;-77
2023/06/19 00:10:29;;;;;;;7.95;6.07;;;;;;;;;;5049546;28;20458;-79
2023/06/19 00:12:54;;;;;;;9.48;5.93;;;;;;;;;;5061477;28;20025;-77
2023/06/19 00:15:20;;;;;;;7.80;5.47;;;;;;;;;;5057582;28;20028;-77
2023/06/19 00:17:45;;;;;;;8.57;6.25;;;;;;;;;;5074290;28;20107;-76
2023/06/19 00:20:13;;;;;;;7.47;5.20;;;;;;;;;;5074788;28;20032;-77
2023/06/19 00:22:39;;;;;;;8.55;5.93;;;;;;;;;;5055564;28;20033;-77
2023/06/19 00:25:04;;;;;;;8.88;6.13;;;;;;;;;;5062473;28;20043;-77
2023/06/19 00:27:30;;;;;;;8.98;6.15;;;;;;;;;;5075233;28;20422;-76
2023/06/19 00:30:01;;;;;;;8.90;5.55;;;;;;;;;;5073433;28;20544;-77
2023/06/19 00:32:27;;;;;;;7.82;5.70;;;;;;;;;;5074936;28;20016;-77
2023/06/19 00:34:52;;;;;;;9.13;5.75;;;;;;;;;;5073832;28;20039;-78
2023/06/19 00:37:17;;;;;;;8.77;5.93;;;;;;;;;;5073705;28;20029;-76
2023/06/19 00:39:43;;;;;;;9.05;5.78;;;;;;;;;;5074877;28;20062;-77
2023/06/19 00:42:08;;;;;;;10.60;6.78;;;;;;;;;;5074512;28;20052;-77
2023/06/19 00:44:34;;;;;;;9.48;6.45;;;;;;;;;;5056963;28;20020;-77
2023/06/19 00:47:01;;;;;;;12.25;6.60;;;;;;;;;;5073515;28;20427;-77
2023/06/19 00:49:29;;;;;;;8.20;5.82;;;;;;;;;;5073360;28;20476;-78
2023/06/19 00:51:54;;;;;;;8.23;5.72;;;;;;;;;;5073169;28;20037;-77
2023/06/19 00:54:21;;;;;;;9.52;6.10;;;;;;;;;;5074450;28;20073;-77
2023/06/19 00:56:46;;;;;;;8.63;5.65;;;;;;;;;;5073344;28;20024;-78
2023/06/19 00:59:17;;;;;;;9.32;5.65;;;;;;;;;;5073326;28;20025;-77
2023/06/19 01:01:43;;;;;;;9.35;6.18;;;;;;;;;;5073082;28;20036;-78
2023/06/19 01:04:08;;;;;;;9.00;6.00;;;;;;;;;;5073331;28;20510;-78
2023/06/19 01:06:38;;;;;;;7.80;5.63;;;;;;;;;;5074126;28;20036;-76
2023/06/19 01:09:14;;;;;;;8.95;6.43;;;;;;;;;;5073878;28;20024;-77
2023/06/19 01:11:44;;;;;;;9.85;6.25;;;;;;;;;;5073705;28;20029;-77
2023/06/19 01:14:14;;;;;;;8.05;5.82;;;;;;;;;;5075002;28;20024;-78
2023/06/19 01:16:43;;;;;;;7.97;5.35;;;;;;;;;;5074827;28;20024;-78
2023/06/19 01:19:10;;;;;;;8.77;6.22;;;;;;;;;;5074256;28;20032;-78
2023/06/19 01:21:36;;;;;;;8.88;5.90;;;;;;;;;;5056407;28;20127;-78
2023/06/19 01:24:03;;;;;;;9.00;5.85;;;;;;;;;;5073542;28;20024;-78
2023/06/19 01:26:28;;;;;;;8.77;6.70;;;;;;;;;;5072790;28;20503;-78
2023/06/19 01:28:54;;;;;;;7.82;5.85;;;;;;;;;;5072643;28;20107;-78
2023/06/19 01:31:21;;;;;;;9.20;5.72;;;;;;;;;;5072286;28;20460;-77
2023/06/19 01:33:47;;;;;;;8.95;5.35;;;;;;;;;;5073816;28;20475;-77
2023/06/19 01:36:15;;;;;;;10.48;6.05;;;;;;;;;;5072443;28;20119;-76
2023/06/19 01:38:43;;;;;;;8.82;5.47;;;;;;;;;;5055944;28;20028;-78
2023/06/19 01:41:09;;;;;;;7.97;5.63;;;;;;;;;;5072477;28;20539;-76
2023/06/19 01:43:35;;;;;;;7.20;5.40;;;;;;;;;;5073688;28;20183;-79
2023/06/19 01:46:01;;;;;;;8.20;5.60;;;;;;;;;;5072635;28;20051;-78
2023/06/19 01:48:27;;;;;;;9.18;6.03;;;;;;;;;;5072862;28;20024;-78
2023/06/19 01:50:52;;;;;;;7.63;5.43;;;;;;;;;;5072731;28;20032;-78
2023/06/19 01:53:18;;;;;;;8.43;5.68;;;;;;;;;;5072784;28;20043;-79
2023/06/19 01:55:45;;;;;;;9.32;6.28;;;;;;;;;;5072910;28;20095;-78
2023/06/19 01:58:11;;;;;;;8.02;5.57;;;;;;;;;;5055930;28;20555;-79
2023/06/19 02:00:37;;;;;;;8.25;5.60;;;;;;;;;;5056163;28;20496;-78
2023/06/19 02:03:03;;;;;;;7.57;5.57;;;;;;;;;;5073458;28;20111;-77
2023/06/19 02:05:29;;;;;;;8.65;5.60;;;;;;;;;;5074293;28;20075;-79
2023/06/19 02:07:55;;;;;;;9.40;5.68;;;;;;;;;;5076824;28;20029;-77
2023/06/19 02:10:20;;;;;;;7.88;5.78;;;;;;;;;;5057968;28;20082;-78
2023/06/19 02:12:46;;;;;;;7.38;5.43;;;;;;;;;;5074396;28;20029;-76
2023/06/19 02:15:11;;;;;;;8.98;6.05;;;;;;;;;;5073470;28;20438;-76
2023/06/19 02:17:38;;;;;;;7.85;5.47;;;;;;;;;;5073352;28;20032;-77
2023/06/19 02:20:08;;;;;;;8.27;5.97;;;;;;;;;;5073872;28;20032;-78
2023/06/19 02:22:34;;;;;;;8.25;5.72;;;;;;;;;;5071649;28;20502;-77
2023/06/19 02:25:00;;;;;;;9.07;6.28;;;;;;;;;;5055622;28;20041;-78
2023/06/19 02:27:25;;;;;;;9.40;5.82;;;;;;;;;;5072400;28;20039;-77
2023/06/19 02:29:51;;;;;;;7.07;5.45;;;;;;;;;;5072106;28;20021;-78
2023/06/19 02:32:17;;;;;;;8.55;5.93;;;;;;;;;;5054730;28;20036;-78
2023/06/19 02:34:44;;;;;;;9.18;5.68;;;;;;;;;;5053372;28;20201;-78
2023/06/19 02:37:10;;;;;;;9.82;6.32;;;;;;;;;;5070598;28;20458;-79
2023/06/19 02:39:36;;;;;;;9.48;6.05;;;;;;;;;;5056963;28;20024;-78
2023/06/19 02:42:02;;;;;;;7.85;5.70;;;;;;;;;;5074408;28;20494;-78
2023/06/19 02:44:27;;;;;;;9.00;5.93;;;;;;;;;;5054823;28;20028;-77
2023/06/19 02:46:53;;;;;;;9.73;6.60;;;;;;;;;;5071590;28;20036;-79
2023/06/19 02:49:18;;;;;;;9.55;6.38;;;;;;;;;;5071326;28;20028;-78
2023/06/19 02:51:44;;;;;;;9.23;5.95;;;;;;;;;;5072423;28;20048;-78
2023/06/19 02:54:09;;;;;;;8.48;5.90;;;;;;;;;;5071054;28;20036;-79
2023/06/19 02:56:35;;;;;;;9.90;6.93;;;;;;;;;;5071126;28;20029;-77
2023/06/19 02:59:01;;;;;;;8.98;6.50;;;;;;;;;;5055674;28;20534;-77
2023/06/19 03:01:28;;;;;;;10.48;7.32;;;;;;;;;;5062740;28;20480;-77
2023/06/19 03:03:54;;;;;;;10.93;6.25;;;;;;;;;;5072042;28;20047;-79
2023/06/19 03:06:19;;;;;;;9.05;6.15;;;;;;;;;;5070905;28;20036;-77
2023/06/19 03:08:46;;;;;;;10.63;6.30;;;;;;;;;;5070795;28;20029;-78
2023/06/19 03:11:11;;;;;;;8.55;6.05;;;;;;;;;;5054003;28;20514;-78
2023/06/19 03:14:07;;;;;;;8.82;5.95;;;;;;;;;;5070906;28;20029;-78
2023/06/19 03:16:33;;;;;;;10.52;6.35;;;;;;;;;;5054031;28;20036;-78
2023/06/19 03:18:58;;;;;;;9.50;5.88;;;;;;;;;;5070550;28;20032;-79
2023/06/19 03:21:24;;;;;;;9.43;6.15;;;;;;;;;;5070435;28;20040;-78
2023/06/19 03:23:51;;;;;;;8.40;5.45;;;;;;;;;;5054130;28;20052;-77
2023/06/19 03:26:19;;;;;;;9.10;6.10;;;;;;;;;;5053839;28;20037;-78
2023/06/19 03:28:46;;;;;;;15.07;7.20;;;;;;;;;;5070432;28;20025;-77
2023/06/19 03:31:12;;;;;;;8.18;6.45;;;;;;;;;;5069832;28;20029;-77
2023/06/19 03:33:37;;;;;;;11.02;6.18;;;;;;;;;;5060263;28;20036;-78
2023/06/19 03:36:04;;;;;;;10.60;6.45;;;;;;;;;;5067157;28;20112;-77
2023/06/19 03:38:56;;;;;;;10.75;5.82;;;;;;;;;;5070346;28;20036;-78
2023/06/19 03:41:25;;;;;;;9.23;5.88;;;;;;;;;;5070158;28;20036;-77
2023/06/19 03:43:50;;;;;;;9.18;6.00;;;;;;;;;;5053745;28;20021;-77
2023/06/19 03:46:17;;;;;;;11.02;6.22;;;;;;;;;;5070211;28;20043;-77
2023/06/19 03:48:42;;;;;;;9.23;5.78;;;;;;;;;;5053648;28;20028;-77
2023/06/19 03:51:08;;;;;;;9.10;6.07;;;;;;;;;;5053247;28;20059;-77
2023/06/19 03:53:34;;;;;;;10.20;6.97;;;;;;;;;;5070523;28;20055;-77
2023/06/19 03:55:59;;;;;;;12.45;8.25;;;;;;;;;;5070420;28;20555;-78
2023/06/19 03:58:25;;;;;;;11.68;7.75;;;;;;;;;;5053650;28;20074;-79
2023/06/19 04:00:51;;;;;;;10.85;6.88;;;;;;;;;;5070406;28;20032;-77
2023/06/19 04:03:17;;;;;;;8.77;6.25;;;;;;;;;;5070359;28;20479;-77
2023/06/19 04:05:45;;;;;;;8.68;5.90;;;;;;;;;;5070203;28;20060;-78
2023/06/19 04:08:11;;;;;;;11.48;7.18;;;;;;;;;;5071328;28;20127;-78
2023/06/19 04:10:36;;;;;;;9.75;6.55;;;;;;;;;;5069926;28;20128;-77
2023/06/19 04:13:02;;;;;;;13.27;6.70;;;;;;;;;;5070339;28;20563;-77
2023/06/19 04:15:31;;;;;;;10.47;5.90;;;;;;;;;;5070277;28;20025;-77
2023/06/19 04:18:00;;;;;;;9.65;6.15;;;;;;;;;;5066411;28;20339;-77
2023/06/19 04:20:26;;;;;;;7.63;5.75;;;;;;;;;;5071147;28;20028;-78
2023/06/19 04:22:51;;;;;;;9.45;6.45;;;;;;;;;;5053986;28;20033;-77
2023/06/19 04:25:18;;;;;;;9.02;6.55;;;;;;;;;;5071815;28;20036;-78
2023/06/19 04:27:44;;;;;;;9.00;6.47;;;;;;;;;;5070416;28;20033;-78
2023/06/19 04:30:11;;;;;;;11.20;7.32;;;;;;;;;;5070684;28;20060;-78
2023/06/19 04:32:40;;;;;;;10.05;6.47;;;;;;;;;;5070933;28;20031;-78
2023/06/19 04:35:06;;;;;;;12.13;7.00;;;;;;;;;;5072326;28;20021;-77
2023/06/19 04:37:32;;;;;;;9.05;6.53;;;;;;;;;;5070777;28;20024;-79
2023/06/19 04:39:57;;;;;;;12.55;6.70;;;;;;;;;;5054575;28;20040;-77
2023/06/19 04:42:23;;;;;;;12.27;6.95;;;;;;;;;;5070321;28;20519;-77
2023/06/19 04:44:49;;;;;;;10.05;6.50;;;;;;;;;;5046152;28;20484;-77
2023/06/19 04:47:19;;;;;;;9.38;6.65;;;;;;;;;;5071477;28;20028;-78
2023/06/19 04:49:45;;;;;;;9.88;6.32;;;;;;;;;;5068880;28;20033;-78
2023/06/19 04:52:11;;;;;;;17.40;6.55;;;;;;;;;;5071061;28;20103;-76
2023/06/19 04:54:36;;;;;;;12.55;7.22;;;;;;;;;;5070214;28;20151;-77
2023/06/19 04:57:02;;;;;;;11.23;6.43;;;;;;;;;;5052457;28;20020;-77
2023/06/19 04:59:30;;;;;;;9.80;6.13;;;;;;;;;;5073922;28;20035;-78
2023/06/19 05:01:56;;;;;;;9.48;6.03;;;;;;;;;;5073083;28;20510;-79
2023/06/19 05:04:22;;;;;;;11.27;6.10;;;;;;;;;;5074942;28;20032;-78
2023/06/19 05:06:48;;;;;;;9.38;6.65;;;;;;;;;;5072864;28;20123;-77
2023/06/19 05:09:14;;;;;;;8.38;6.30;;;;;;;;;;5073913;28;20083;-78
2023/06/19 05:11:39;;;;;;;8.90;6.85;;;;;;;;;;5061838;28;20056;-80
2023/06/19 05:14:05;;;;;;;9.18;6.43;;;;;;;;;;5069979;28;20024;-78
2023/06/19 05:16:30;;;;;;;13.38;7.35;;;;;;;;;;5073611;28;20021;-78
2023/06/19 05:18:56;;;;;;;12.18;8.20;;;;;;;;;;5072474;28;20166;-78
2023/06/19 05:21:22;;;;;;;8.73;5.97;;;;;;;;;;5072390;28;20082;-78
2023/06/19 05:23:50;;;;;;;10.52;6.63;;;;;;;;;;5055323;28;20041;-79
2023/06/19 05:26:16;;;;;;;7.80;5.88;;;;;;;;;;5068804;28;20087;-79
2023/06/19 05:28:42;;;;;;;12.32;7.07;;;;;;;;;;5073344;28;20078;-77
2023/06/19 05:31:07;;;;;;;10.65;5.97;;;;;;;;;;5073046;28;20044;-77
2023/06/19 05:33:33;;;;;;;9.43;6.28;;;;;;;;;;5038855;28;20036;-77
2023/06/19 05:35:58;;;;;;;11.15;6.03;;;;;;;;;;5055697;28;20028;-77
2023/06/19 05:38:25;;;;;;;9.05;6.50;;;;;;;;;;5073436;28;20102;-78
2023/06/19 05:40:52;;;;;;;9.20;6.63;;;;;;;;;;5073084;28;20063;-79
2023/06/19 05:43:18;;;;;;;13.15;6.95;;;;;;;;;;5071877;28;20025;-78
2023/06/19 05:45:44;;;;;;;11.43;6.15;;;;;;;;;;5071980;28;20028;-80
2023/06/19 05:48:09;;;;;;;10.43;6.80;;;;;;;;;;5073924;28;20036;-78
2023/06/19 05:50:35;;;;;;;11.27;6.90;;;;;;;;;;5071709;28;20476;-77
2023/06/19 05:53:00;;;;;;;9.98;6.68;;;;;;;;;;5073197;28;20054;-78
2023/06/19 05:55:27;;;;;;;8.20;5.90;;;;;;;;;;5073193;28;20052;-77
2023/06/19 05:57:53;;;;;;;10.60;6.55;;;;;;;;;;5072185;28;20179;-78
2023/06/19 06:00:19;;;;;;;9.40;7.13;;;;;;;;;;5071558;28;20028;-78
2023/06/19 06:02:44;;;;;;;9.52;5.78;;;;;;;;;;5071702;28;20052;-78
2023/06/19 06:05:10;;;;;;;14.38;6.80;;;;;;;;;;5072844;28;20395;-79
2023/06/19 06:07:35;;;;;;;13.23;6.55;;;;;;;;;;5072852;28;20111;-77
2023/06/19 06:10:01;;;;;;;10.23;6.45;;;;;;;;;;5072864;28;20112;-78
2023/06/19 06:12:27;;;;;;;11.07;6.32;;;;;;;;;;5072765;28;20458;-77
2023/06/19 06:14:52;;;;;;;15.23;7.30;;;;;;;;;;5055447;28;20024;-78
2023/06/19 06:17:18;;;;;;;14.18;7.00;;;;;;;;;;5072970;28;20017;-78
2023/06/19 06:19:43;;;;;;;10.60;6.40;;;;;;;;;;5072311;28;20058;-78
2023/06/19 06:22:09;;;;;;;10.38;6.63;;;;;;;;;;5071856;28;20028;-78
2023/06/19 06:24:34;;;;;;;11.23;6.72;;;;;;;;;;5073043;28;20028;-78
2023/06/19 06:27:00;;;;;;;12.75;7.55;;;;;;;;;;5071648;28;20486;-79
2023/06/19 06:29:25;;;;;;;11.77;7.38;;;;;;;;;;5072285;28;20027;-79
2023/06/19 06:31:54;;;;;;;9.45;6.75;;;;;;;;;;5072240;28;20217;-78
2023/06/19 06:34:19;;;;;;;;;;;;;;;;;;5072517;28;20081;-78
2023/06/19 06:36:45;;;;;;;13.88;9.30;;;;;;;;;;5072244;28;19912;-78
2023/06/19 06:39:11;;;;;;;12.27;8.05;;;;;;;;;;5072160;28;20067;-77
2023/06/19 06:41:36;;;;;;;11.40;6.88;;;;;;;;;;5054380;28;20040;-77
2023/06/19 06:44:05;;;;;;;11.53;7.27;;;;;;;;;;5054103;28;20462;-78
2023/06/19 06:46:31;;;;;;;13.02;7.45;;;;;;;;;;5072166;28;20502;-77
2023/06/19 06:48:56;;;;;;;14.00;8.25;;;;;;;;;;5071916;28;20029;-77
2023/06/19 06:51:22;;;;;;;15.73;7.20;;;;;;;;;;5070721;28;20033;-76
2023/06/19 06:53:48;;;;;;;14.43;7.13;;;;;;;;;;5070996;28;20163;-78
2023/06/19 06:56:13;;;;;;;11.18;6.60;;;;;;;;;;5054329;28;20369;-77
2023/06/19 06:58:39;;;;;;;18.92;8.75;;;;;;;;;;5071305;28;20044;-77
2023/06/19 07:01:04;;;;;;;21.70;7.93;;;;;;;;;;5071795;28;20031;-77
2023/06/19 07:03:31;;;;;;;15.68;8.60;;;;;;;;;;5037960;28;20040;-77
2023/06/19 07:05:57;;;;;;;11.27;6.75;;;;;;;;;;5072064;28;20082;-77
2023/06/19 07:08:23;;;;;;;9.98;6.72;;;;;;;;;;5072077;28;20028;-78
2023/06/19 07:10:48;;;;;;;17.50;7.25;;;;;;;;;;5053860;28;20028;-77
2023/06/19 07:13:14;;;;;;;11.85;7.07;;;;;;;;;;5072289;28;20025;-79
2023/06/19 07:15:40;;;;;;;11.90;7.10;;;;;;;;;;5072364;28;20364;-78
2023/06/19 07:18:06;;;;;;;11.25;6.88;;;;;;;;;;5071244;28;20556;-78
2023/06/19 07:20:31;;;;;;;12.32;6.75;;;;;;;;;;5073342;28;20029;-77
2023/06/19 07:22:57;;;;;;;11.73;7.38;;;;;;;;;;5075008;28;20130;-78
2023/06/19 07:25:25;;;;;;;12.73;7.25;;;;;;;;;;5072341;28;20025;-78
2023/06/19 07:27:50;;;;;;;10.20;7.30;;;;;;;;;;5073195;28;20032;-77
2023/06/19 07:30:16;;;;;;;14.13;7.07;;;;;;;;;;5072933;28;20292;-77
2023/06/19 07:32:41;;;;;;;13.63;7.38;;;;;;;;;;5071344;28;20425;-78
2023/06/19 07:35:07;;;;;;;12.30;7.57;;;;;;;;;;5069421;28;20507;-78
2023/06/19 07:37:33;;;;;;;9.82;6.90;;;;;;;;;;5070482;28;20488;-79
2023/06/19 07:39:58;;;;;;;10.13;6.45;;;;;;;;;;5070703;28;20052;-79
2023/06/19 07:42:24;;;;;;;10.57;7.32;;;;;;;;;;5070479;28;20031;-78
2023/06/19 07:44:49;;;;;;;14.05;7.40;;;;;;;;;;5070171;28;20029;-78
2023/06/19 07:47:16;;;;;;;10.65;6.90;;;;;;;;;;5070117;28;20430;-79
2023/06/19 07:49:41;;;;;;;11.50;6.85;;;;;;;;;;5070946;28;20028;-78
2023/06/19 07:52:09;;;;;;;13.48;7.93;;;;;;;;;;5069786;28;20495;-78
2023/06/19 07:54:35;;;;;;;11.20;7.00;;;;;;;;;;5055817;28;20032;-78
2023/06/19 07:57:00;;;;;;;9.82;6.82;;;;;;;;;;5071066;28;20464;-79
2023/06/19 07:59:26;;;;;;;13.73;6.85;;;;;;;;;;5071179;28;20024;-79
2023/06/19 08:01:51;;;;;;;10.75;6.53;;;;;;;;;;5071090;28;20032;-79
2023/06/19 08:04:17;;;;;;;15.98;8.02;;;;;;;;;;5053164;28;20067;-78
2023/06/19 08:06:42;;;;;;;14.77;6.82;;;;;;;;;;5069755;28;20032;-80
2023/06/19 08:09:08;;;;;;;10.13;6.68;;;;;;;;;;5071036;28;20127;-78
2023/06/19 08:11:33;;;;;;;12.15;6.70;;;;;;;;;;5069660;28;20570;-78
2023/06/19 08:13:59;;;;;;;11.00;7.00;;;;;;;;;;5069720;28;20028;-79
2023/06/19 08:16:25;;;;;;;14.95;6.78;;;;;;;;;;5071067;28;20085;-79
2023/06/19 08:18:51;;;;;;;12.55;7.47;;;;;;;;;;5057696;28;20028;-79
2023/06/19 08:21:16;;;;;;;10.82;6.85;;;;;;;;;;5070864;28;20476;-79
2023/06/19 08:23:43;;;;;;;9.20;6.15;;;;;;;;;;5071208;28;20040;-79
2023/06/19 08:26:09;;;;;;;10.43;6.50;;;;;;;;;;5071201;28;20488;-78
2023/06/19 08:28:34;;;;;;;9.10;6.65;;;;;;;;;;5069927;28;20105;-80
2023/06/19 08:31:00;;;;;;;9.27;5.90;;;;;;;;;;5070911;28;20032;-78
2023/06/19 08:33:25;;;;;;;11.60;7.00;;;;;;;;;;5072840;28;20025;-78
2023/06/19 08:35:51;;;;;;;8.95;6.07;;;;;;;;;;5074647;28;20028;-78
2023/06/19 08:38:16;;;;;;;10.77;6.95;;;;;;;;;;5074380;28;20020;-79
2023/06/19 08:40:45;;;;;;;8.07;6.03;;;;;;;;;;5074411;28;20062;-78
2023/06/19 08:43:11;;;;;;;11.52;7.60;;;;;;;;;;5073463;28;20101;-80
2023/06/19 08:45:37;;;;;;;9.23;6.55;;;;;;;;;;5074759;28;20024;-78
2023/06/19 08:48:08;;;;;;;17.02;6.53;;;;;;;;;;5074557;28;20024;-78
2023/06/19 08:50:38;;;;;;;12.20;6.72;;;;;;;;;;5059296;28;20024;-78
2023/06/19 08:53:04;;;;;;;19.23;6.88;;;;;;;;;;5073082;28;20029;-81
2023/06/19 08:55:29;;;;;;;12.30;6.93;;;;;;;;;;5073139;28;20024;-78
2023/06/19 08:57:55;;;;;;;10.57;6.25;;;;;;;;;;5074560;28;20067;-79
2023/06/19 09:00:28;;;;;;;10.43;6.93;;;;;;;;;;5074266;28;20541;-78
2023/06/19 09:03:02;;;;;;;9.70;6.57;;;;;;;;;;5074276;28;20059;-78
2023/06/19 09:05:27;;;;;;;8.73;6.35;;;;;;;;;;5074466;28;20029;-78
2023/06/19 09:07:57;;;;;;;11.77;6.22;;;;;;;;;;5074343;28;20036;-78
2023/06/19 09:10:23;;;;;;;11.02;5.65;;;;;;;;;;5072955;28;20102;-79
2023/06/19 09:12:56;;;;;;;8.95;6.03;;;;;;;;;;5074308;28;20025;-77
2023/06/19 09:15:23;;;;;;;9.02;5.88;;;;;;;;;;5074419;28;20048;-78
2023/06/19 09:17:59;;;;;;;9.05;5.90;;;;;;;;;;5061457;28;20025;-77
2023/06/19 09:20:28;;;;;;;12.30;5.78;;;;;;;;;;5073214;28;20028;-77
2023/06/19 09:22:57;;;;;;;12.63;5.63;;;;;;;;;;5073199;28;20034;-79
2023/06/19 09:25:23;;;;;;;11.73;5.15;;;;;;;;;;5074226;28;20515;-77
2023/06/19 09:27:49;;;;;;;10.18;5.78;;;;;;;;;;5072874;28;20057;-79
2023/06/19 09:30:15;;;;;;;14.68;6.07;;;;;;;;;;5074100;28;20403;-79
2023/06/19 09:32:41;;;;;;;9.43;5.97;;;;;;;;;;5072658;28;20473;-80
2023/06/19 09:35:07;;;;;;;15.50;5.47;;;;;;;;;;5074302;28;20016;-79
2023/06/19 09:37:32;;;;;;;10.85;6.65;;;;;;;;;;5072915;28;20113;-78
2023/06/19 09:40:01;;;;;;;9.25;5.35;;;;;;;;;;5055521;28;20558;-80
2023/06/19 09:42:33;;;;;;;15.55;6.10;;;;;;;;;;5071949;28;20035;-78
2023/06/19 09:45:01;;;;;;;10.95;5.43;;;;;;;;;;5055014;28;20032;-79
2023/06/19 09:47:29;;;;;;;8.80;5.87;;;;;;;;;;5073137;28;20025;-79
2023/06/19 09:49:55;;;;;;;10.02;5.95;;;;;;;;;;5068912;28;20273;-79
2023/06/19 09:52:25;;;;;;;10.68;6.47;;;;;;;;;;5072651;28;20024;-78
2023/06/19 09:55:02;;;;;;;11.25;5.78;;;;;;;;;;5073295;28;20036;-78
2023/06/19 09:57:29;;;;;;;10.30;6.50;;;;;;;;;;5083676;28;20099;-78
2023/06/19 09:59:58;;;;;;;17.73;6.70;;;;;;;;;;5078255;28;20039;-76
2023/06/19 10:02:26;;;;;;;11.32;6.75;;;;;;;;;;5085612;28;20028;-79
2023/06/19 10:04:52;;;;;;;11.70;6.78;;;;;;;;;;5073325;28;20025;-78
2023/06/19 10:07:19;;;;;;;10.25;5.90;;;;;;;;;;5072730;28;20044;-79
2023/06/19 10:12:55;;;;;;;12.18;6.13;;;;;;;;;;5072951;28;20437;-77
2023/06/19 10:15:21;;;;;;;12.10;6.50;;;;;;;;;;5072992;28;20100;-77
2023/06/19 10:17:48;;;;;;;10.38;6.55;;;;;;;;;;5073003;28;20028;-78
2023/06/19 10:20:32;;;;;;;10.07;6.57;;;;;;;;;;5069687;28;20614;-79
2023/06/19 10:23:01;;;;;;;10.30;6.03;;;;;;;;;;5072748;28;20032;-78
2023/06/19 10:25:28;;;;;;;11.85;6.95;;;;;;;;;;5063155;28;20039;-79
2023/06/19 10:27:54;;;;;;;11.70;6.68;;;;;;;;;;5071724;28;20530;-77
2023/06/19 10:30:20;;;;;;;11.20;6.38;;;;;;;;;;5072110;28;20032;-77
2023/06/19 10:32:48;;;;;;;12.20;6.68;;;;;;;;;;5072541;28;20074;-80
2023/06/19 10:35:14;;;;;;;;;;;;;;;;;;5055465;28;20329;-79
2023/06/19 10:37:40;;;;;;;15.38;6.65;;;;;;;;;;5072912;28;20270;-79
2023/06/19 10:40:08;;;;;;;13.38;7.03;;;;;;;;;;5071174;28;20511;-78
2023/06/19 10:42:34;;;;;;;11.95;6.90;;;;;;;;;;5054982;28;20081;-78
2023/06/19 10:45:02;;;;;;;16.00;7.20;;;;;;;;;;5071065;28;20033;-77
2023/06/19 10:47:28;;;;;;;;;;;;;;;;;;5072179;28;20387;-78
2023/06/19 10:49:54;;;;;;;14.25;6.57;;;;;;;;;;5078764;22;19919;-77
2023/06/19 10:52:20;;;;;;;11.52;6.55;;;;;;;;;;5053354;28;20037;-79
2023/06/19 10:54:45;;;;;;;9.48;6.57;;;;;;;;;;5071798;28;20055;-77
2023/06/19 10:57:13;;;;;;;9.82;6.40;;;;;;;;;;5050023;28;20040;-76
2023/06/19 10:59:39;;;;;;;10.20;7.78;;;;;;;;;;5053787;28;20039;-77
2023/06/19 11:02:05;;;;;;;8.65;6.20;;;;;;;;;;5047462;28;20036;-78
2023/06/19 11:04:31;;;;;;;8.90;6.05;;;;;;;;;;5034203;28;20095;-76
2023/06/19 11:06:56;;;;;;;12.13;6.15;;;;;;;;;;5033973;28;20024;-77
2023/06/19 11:09:22;;;;;;;9.43;6.57;;;;;;;;;;5051928;28;20041;-78
2023/06/19 11:11:48;;;;;;;9.05;6.90;;;;;;;;;;5050253;28;20032;-76
2023/06/19 11:14:15;;;;;;;14.38;8.05;;;;;;;;;;5051846;28;20029;-76
2023/06/19 11:16:41;;;;;;;12.65;6.63;;;;;;;;;;5034233;28;20033;-77
2023/06/19 11:19:08;;;;;;;12.23;6.75;;;;;;;;;;5034011;28;20037;-79
2023/06/19 11:21:38;;;;;;;9.63;6.22;;;;;;;;;;5050339;28;20025;-78
2023/06/19 11:24:05;;;;;;;9.80;6.45;;;;;;;;;;5051383;28;20032;-79
2023/06/19 11:26:35;;;;;;;9.23;6.45;;;;;;;;;;5033790;28;20087;-77
2023/06/19 11:29:03;;;;;;;11.68;6.72;;;;;;;;;;5050259;28;20029;-80
2023/06/19 11:31:29;;;;;;;12.30;7.03;;;;;;;;;;5016862;28;20041;-77
2023/06/19 11:34:01;;;;;;;9.52;7.03;;;;;;;;;;5017544;28;20446;-78
2023/06/19 11:36:31;;;;;;;11.60;7.60;;;;;;;;;;5017948;28;20037;-78
2023/06/19 11:38:56;;;;;;;9.07;6.57;;;;;;;;;;5049917;28;20025;-78
2023/06/19 11:41:27;;;;;;;11.93;7.25;;;;;;;;;;5037339;28;20037;-79
2023/06/19 11:44:00;;;;;;;13.13;7.00;;;;;;;;;;5033330;28;20041;-78
2023/06/19 11:46:44;;;;;;;14.90;7.30;;;;;;;;;;5033345;28;20021;-78
2023/06/19 11:49:23;;;;;;;15.52;7.10;;;;;;;;;;5050090;28;20040;-77
2023/06/19 11:51:51;;;;;;;10.60;7.85;;;;;;;;;;5028142;28;20033;-78
2023/06/19 11:54:22;;;;;;;12.18;7.32;;;;;;;;;;5049861;28;20109;-78
2023/06/19 11:56:51;;;;;;;11.98;7.35;;;;;;;;;;5051134;28;20075;-77
2023/06/19 11:59:17;;;;;;;12.55;7.00;;;;;;;;;;5050791;28;20026;-78
2023/06/19 12:01:42;;;;;;;10.15;7.13;;;;;;;;;;5050944;28;20492;-78
2023/06/19 12:04:08;;;;;;;9.95;7.30;;;;;;;;;;5033558;28;20076;-76
2023/06/19 12:06:37;;;;;;;11.90;7.35;;;;;;;;;;5018209;28;20067;-78
2023/06/19 12:09:27;;;;;;;8.88;7.20;;;;;;;;;;5040129;28;20029;-77
2023/06/19 12:11:53;;;;;;;8.98;6.38;;;;;;;;;;5054945;28;20045;-76
2023/06/19 12:14:27;;;;;;;27.98;8.25;;;;;;;;;;5037768;28;20043;-78
2023/06/19 12:16:57;;;;;;;10.13;7.22;;;;;;;;;;5021127;28;20063;-77
2023/06/19 12:19:27;;;;;;;9.50;6.93;;;;;;;;;;5037745;28;20095;-77
2023/06/19 12:22:13;;;;;;;10.40;7.28;;;;;;;;;;5039131;28;20048;-78
2023/06/19 12:24:46;;;;;;;12.50;7.68;;;;;;;;;;5022767;28;20051;-78
2023/06/19 12:27:12;;;;;;;10.30;7.20;;;;;;;;;;5053693;28;20474;-78
2023/06/19 12:29:37;;;;;;;12.95;7.00;;;;;;;;;;5053597;28;20112;-78
2023/06/19 12:32:03;;;;;;;14.60;7.75;;;;;;;;;;5053714;28;20125;-78
2023/06/19 12:34:29;;;;;;;10.00;7.40;;;;;;;;;;5053700;28;20039;-78
2023/06/19 12:36:54;;;;;;;11.48;7.47;;;;;;;;;;5020721;28;20029;-78
2023/06/19 12:39:20;;;;;;;14.20;7.40;;;;;;;;;;5020538;28;20401;-76
2023/06/19 12:41:46;;;;;;;13.90;7.30;;;;;;;;;;5054314;28;20055;-77
2023/06/19 12:44:12;;;;;;;12.02;7.10;;;;;;;;;;5036462;28;20066;-77
2023/06/19 12:46:39;;;;;;;7.80;6.40;;;;;;;;;;5020169;28;20495;-78
2023/06/19 12:49:07;;;;;;;12.48;7.53;;;;;;;;;;5054623;28;20029;-77
2023/06/19 12:51:36;;;;;;;13.68;7.40;;;;;;;;;;5036514;28;20029;-78
2023/06/19 12:54:02;;;;;;;11.25;6.72;;;;;;;;;;5020361;28;20033;-77
2023/06/19 12:56:28;;;;;;;12.40;6.45;;;;;;;;;;5052695;28;20150;-77
2023/06/19 12:58:54;;;;;;;8.60;6.70;;;;;;;;;;5036577;28;20033;-78
2023/06/19 13:01:19;;;;;;;10.02;6.45;;;;;;;;;;5053019;28;20037;-77
2023/06/19 13:03:45;;;;;;;8.48;6.68;;;;;;;;;;5036553;28;20064;-77
2023/06/19 13:06:11;;;;;;;11.85;6.55;;;;;;;;;;5036321;28;20036;-76
2023/06/19 13:08:37;;;;;;;12.15;6.40;;;;;;;;;;5054038;28;20029;-78
2023/06/19 13:11:02;;;;;;;15.00;7.05;;;;;;;;;;5052637;28;20037;-78
2023/06/19 13:13:28;;;;;;;11.98;6.63;;;;;;;;;;5028022;28;20044;-77
2023/06/19 13:15:54;;;;;;;10.13;6.53;;;;;;;;;;5057526;28;20021;-79
2023/06/19 13:18:19;;;;;;;9.52;6.25;;;;;;;;;;5052425;28;20029;-78
2023/06/19 13:20:47;;;;;;;7.70;6.00;;;;;;;;;;5054162;28;20130;-77
2023/06/19 13:23:14;;;;;;;10.38;6.60;;;;;;;;;;5052713;28;20087;-78
2023/06/19 13:25:40;;;;;;;9.40;6.70;;;;;;;;;;5035898;28;20052;-78
2023/06/19 13:28:06;;;;;;;8.70;6.45;;;;;;;;;;5035872;28;20618;-77
2023/06/19 13:30:31;;;;;;;12.15;6.18;;;;;;;;;;5052962;28;20025;-77
2023/06/19 13:32:57;;;;;;;13.35;6.90;;;;;;;;;;5037092;28;20423;-77
2023/06/19 13:35:23;;;;;;;9.80;6.40;;;;;;;;;;5055058;28;20053;-77
2023/06/19 13:41:32;;;;;;;12.02;6.25;;;;;;;;;;5001673;28;20029;-79
2023/06/19 13:44:26;;;;;;;10.63;6.85;;;;;;;;;;5053434;28;20072;-78
2023/06/19 13:46:54;;;;;;;9.95;6.05;;;;;;;;;;5053426;28;20021;-77
2023/06/19 13:49:24;;;;;;;15.38;6.47;;;;;;;;;;5036114;28;20032;-78
2023/06/19 13:51:51;;;;;;;9.73;7.13;;;;;;;;;;5053437;28;20440;-79
2023/06/19 13:54:20;;;;;;;11.80;6.82;;;;;;;;;;5053804;28;20100;-78
2023/06/19 13:56:51;;;;;;;9.82;6.47;;;;;;;;;;5019952;28;20060;-79
2023/06/19 13:59:16;;;;;;;9.63;6.40;;;;;;;;;;5035667;28;20384;-79
2023/06/19 14:01:42;;;;;;;11.00;6.85;;;;;;;;;;5048435;28;20025;-77
2023/06/19 14:04:11;;;;;;;10.02;6.38;;;;;;;;;;5046970;28;20112;-78
2023/06/19 14:06:37;;;;;;;10.13;6.65;;;;;;;;;;5053526;28;20032;-79
2023/06/19 14:09:03;;;;;;;11.50;6.57;;;;;;;;;;5035712;28;20045;-79
2023/06/19 14:11:29;;;;;;;12.48;6.30;;;;;;;;;;5051754;28;20389;-78
2023/06/19 14:13:55;;;;;;;13.95;6.65;;;;;;;;;;5052283;28;20032;-77
2023/06/19 14:16:21;;;;;;;10.88;6.78;;;;;;;;;;5051890;28;20032;-78
2023/06/19 14:18:47;;;;;;;9.00;6.50;;;;;;;;;;5035603;28;20028;-79
2023/06/19 14:21:12;;;;;;;8.35;6.50;;;;;;;;;;5051905;28;20032;-77
2023/06/19 14:23:43;;;;;;;9.38;6.70;;;;;;;;;;5053171;28;20140;-79
2023/06/19 14:26:09;;;;;;;10.93;6.30;;;;;;;;;;5053525;28;20108;-78
2023/06/19 14:35:09;;;;;;;9.63;6.15;;;;;;;;;;5040528;28;20029;-79
2023/06/19 14:37:34;;;;;;;9.57;5.97;;;;;;;;;;5052434;28;20029;-78
2023/06/19 14:40:19;;;;;;;11.20;5.38;;;;;;;;;;5051281;28;20108;-78
2023/06/19 14:42:45;;;;;;;8.45;5.78;;;;;;;;;;5051130;28;20173;-78
2023/06/19 14:45:10;;;;;;;9.55;5.68;;;;;;;;;;5051144;28;20036;-78
2023/06/19 14:47:39;;;;;;;7.30;5.40;;;;;;;;;;5034701;28;20391;-78